createdAt,value
2023-02-06T00:01:49.695Z,32.60
2023-02-06T00:04:21.495Z,29.20
2023-02-06T00:06:52.434Z,30.30
2023-02-06T00:09:23.126Z,27.90
2023-02-06T00:11:53.946Z,28.10
2023-02-06T00:14:24.742Z,24.80
2023-02-06T00:16:55.778Z,24.30
2023-02-06T00:19:26.606Z,24.40
2023-02-06T00:21:57.274Z,29.00
2023-02-06T00:24:28.073Z,28.30
2023-02-06T00:26:59.077Z,27.60
2023-02-06T00:29:29.996Z,24.50
2023-02-06T00:32:00.997Z,25.30
2023-02-06T00:34:31.728Z,20.00
2023-02-06T00:37:04.145Z,25.80
2023-02-06T00:39:34.933Z,26.00
2023-02-06T00:42:05.741Z,23.00
2023-02-06T00:44:36.819Z,25.10
2023-02-06T00:47:07.825Z,26.10
2023-02-06T00:49:38.809Z,22.70
2023-02-06T00:52:10.142Z,20.60
2023-02-06T00:54:41.177Z,22.80
2023-02-06T00:57:11.850Z,21.30
2023-02-06T01:02:14.398Z,26.30
2023-02-06T01:04:45.458Z,22.50
2023-02-06T01:07:16.583Z,24.50
2023-02-06T01:09:47.277Z,28.10
2023-02-06T01:12:18.249Z,29.60
2023-02-06T01:14:51.039Z,27.00
2023-02-06T01:17:21.978Z,26.60
2023-02-06T01:19:52.702Z,31.80
2023-02-06T01:22:23.947Z,33.10
2023-02-06T01:24:54.735Z,31.80
2023-02-06T01:27:25.858Z,30.30
2023-02-06T01:29:56.553Z,33.50
2023-02-06T01:32:27.296Z,31.50
2023-02-06T01:34:58.032Z,30.30
2023-02-06T01:37:30.583Z,28.60
2023-02-06T01:40:01.137Z,28.30
2023-02-06T01:42:35.071Z,24.90
2023-02-06T01:45:22.916Z,29.20
2023-02-06T01:47:56.260Z,25.90
2023-02-06T01:50:26.895Z,32.60
2023-02-06T01:52:58.038Z,29.40
2023-02-06T01:55:29.180Z,29.40
2023-02-06T02:00:31.529Z,33.70
2023-02-06T02:03:02.711Z,27.60
2023-02-06T02:05:35.195Z,30.60
2023-02-06T02:08:08.633Z,31.30
2023-02-06T02:13:08.931Z,30.70
2023-02-06T02:15:45.907Z,33.70
2023-02-06T02:18:22.982Z,28.20
2023-02-06T02:21:03.657Z,31.10
2023-02-06T02:23:41.660Z,29.80
2023-02-06T02:26:25.192Z,26.90
2023-02-06T02:29:11.142Z,31.20
2023-02-06T02:32:08.501Z,28.10
2023-02-06T02:34:56.172Z,31.00
2023-02-06T02:37:32.079Z,28.40
2023-02-06T02:40:07.023Z,28.80
2023-02-06T02:42:43.361Z,26.20
2023-02-06T02:45:16.987Z,31.20
2023-02-06T02:47:51.232Z,29.00
2023-02-06T02:50:21.770Z,28.20
2023-02-06T02:52:53.410Z,28.40
2023-02-06T02:55:24.618Z,26.40
2023-02-06T02:58:02.351Z,31.10
2023-02-06T03:00:35.185Z,36.10
2023-02-06T03:03:06.580Z,29.00
2023-02-06T03:05:41.843Z,30.60
2023-02-06T03:08:17.782Z,30.50
2023-02-06T03:10:54.039Z,31.40
2023-02-06T03:13:28.830Z,29.00
2023-02-06T03:16:02.263Z,29.90
2023-02-06T03:18:36.174Z,34.50
2023-02-06T03:21:08.079Z,32.50
2023-02-06T03:23:40.007Z,34.20
2023-02-06T03:26:11.947Z,33.10
2023-02-06T03:28:45.002Z,35.10
2023-02-06T03:31:18.786Z,27.80
2023-02-06T03:33:51.423Z,36.90
2023-02-06T03:36:22.369Z,36.50
2023-02-06T03:38:54.373Z,39.90
2023-02-06T03:41:29.353Z,39.30
2023-02-06T03:44:01.537Z,43.90
2023-02-06T03:46:33.699Z,35.80
2023-02-06T03:49:07.574Z,44.00
2023-02-06T03:51:40.282Z,35.40
2023-02-06T03:54:12.568Z,37.90
2023-02-06T03:56:45.294Z,36.90
2023-02-06T03:59:17.290Z,35.60
2023-02-06T04:01:50.490Z,34.20
2023-02-06T04:04:22.656Z,33.50
2023-02-06T04:06:53.188Z,39.70
2023-02-06T04:09:24.836Z,38.80
2023-02-06T04:11:55.363Z,35.10
2023-02-06T04:14:26.345Z,33.00
2023-02-06T04:16:56.826Z,40.70
2023-02-06T04:19:28.131Z,45.60
2023-02-06T04:21:58.812Z,42.50
2023-02-06T04:24:31.098Z,46.40
2023-02-06T04:27:01.733Z,45.80
2023-02-06T04:29:33.059Z,38.80
2023-02-06T04:32:03.609Z,39.20
2023-02-06T04:34:35.546Z,35.60
2023-02-06T04:37:06.640Z,36.30
2023-02-06T04:39:38.345Z,33.30
2023-02-06T04:42:09.077Z,33.10
2023-02-06T04:44:40.574Z,36.30
2023-02-06T04:47:11.101Z,30.90
2023-02-06T04:49:42.931Z,26.50
2023-02-06T04:52:13.544Z,27.40
2023-02-06T04:54:45.363Z,22.50
2023-02-06T04:57:16.046Z,26.10
2023-02-06T04:59:47.484Z,25.60
2023-02-06T05:02:18.026Z,22.10
2023-02-06T05:04:49.769Z,28.70
2023-02-06T05:07:20.607Z,26.10
2023-02-06T05:09:52.053Z,29.70
2023-02-06T05:12:22.603Z,29.60
2023-02-06T05:14:53.774Z,28.20
2023-02-06T05:17:24.359Z,30.40
2023-02-06T05:19:58.125Z,28.80
2023-02-06T05:22:29.412Z,28.80
2023-02-06T05:25:00.946Z,32.10
2023-02-06T05:27:31.407Z,31.50
2023-02-06T05:30:02.537Z,27.40
2023-02-06T05:32:33.066Z,26.80
2023-02-06T05:35:04.462Z,25.50
2023-02-06T05:37:37.338Z,22.80
2023-02-06T05:40:09.422Z,34.40
2023-02-06T05:42:40.282Z,29.90
2023-02-06T05:45:11.939Z,29.60
2023-02-06T05:47:42.552Z,31.40
2023-02-06T05:50:14.121Z,29.00
2023-02-06T05:52:44.656Z,31.30
2023-02-06T05:55:17.596Z,45.80
2023-02-06T05:57:48.065Z,44.30
2023-02-06T06:00:22.252Z,44.20
2023-02-06T06:02:52.806Z,41.40
2023-02-06T06:05:25.295Z,45.30
2023-02-06T06:07:55.754Z,42.20
2023-02-06T06:10:26.772Z,44.60
2023-02-06T06:12:57.194Z,42.40
2023-02-06T06:15:28.524Z,48.50
2023-02-06T06:17:59.017Z,42.00
2023-02-06T06:20:30.303Z,40.50
2023-02-06T06:23:00.772Z,45.50
2023-02-06T06:25:32.281Z,41.60
2023-02-06T06:28:02.959Z,43.30
2023-02-06T06:30:35.665Z,40.90
2023-02-06T06:33:06.790Z,48.50
2023-02-06T06:35:38.607Z,45.20
2023-02-06T06:38:09.131Z,44.90
2023-02-06T06:40:40.797Z,49.60
2023-02-06T06:43:11.301Z,39.50
2023-02-06T06:45:42.801Z,47.30
2023-02-06T06:48:13.379Z,45.70
2023-02-06T06:50:44.730Z,44.40
2023-02-06T06:53:15.461Z,49.50
2023-02-06T06:55:46.833Z,42.60
2023-02-06T06:58:17.540Z,45.30
2023-02-06T07:00:49.037Z,43.40
2023-02-06T07:03:19.675Z,42.00
2023-02-06T07:05:53.187Z,44.80
2023-02-06T07:08:24.266Z,47.00
2023-02-06T07:10:55.093Z,47.00
2023-02-06T07:13:25.663Z,42.40
2023-02-06T07:15:56.869Z,49.60
2023-02-06T07:18:27.398Z,48.50
2023-02-06T07:20:58.950Z,45.40
2023-02-06T07:23:29.479Z,49.00
2023-02-06T07:26:02.908Z,50.80
2023-02-06T07:28:33.615Z,50.80
2023-02-06T07:31:05.648Z,51.70
2023-02-06T07:33:36.197Z,49.20
2023-02-06T07:36:10.842Z,53.20
2023-02-06T07:38:41.961Z,51.20
2023-02-06T07:41:13.558Z,45.50
2023-02-06T07:43:44.053Z,47.70
2023-02-06T07:46:15.804Z,57.80
2023-02-06T07:48:46.434Z,50.10
2023-02-06T07:51:17.905Z,46.80
2023-02-06T07:53:49.219Z,44.20
2023-02-06T07:56:21.231Z,43.70
2023-02-06T07:58:52.867Z,42.90
2023-02-06T08:01:24.585Z,46.70
2023-02-06T08:03:55.390Z,41.70
2023-02-06T08:06:31.153Z,40.50
2023-02-06T08:09:02.210Z,35.90
2023-02-06T08:11:36.450Z,37.80
2023-02-06T08:14:07.395Z,33.90
2023-02-06T08:16:39.819Z,29.70
2023-02-06T08:19:12.406Z,23.20
2023-02-06T08:21:43.587Z,20.60
2023-02-06T08:24:14.618Z,22.00
2023-02-06T08:26:45.560Z,22.30
2023-02-06T08:29:16.495Z,21.00
2023-02-06T08:31:47.698Z,20.40
2023-02-06T08:34:18.679Z,24.60
2023-02-06T08:36:49.666Z,23.00
2023-02-06T08:39:20.862Z,22.50
2023-02-06T08:41:52.822Z,21.60
2023-02-06T08:44:23.665Z,20.60
2023-02-06T08:47:08.938Z,23.30
2023-02-06T08:49:41.002Z,21.80
2023-02-06T08:52:12.450Z,24.10
2023-02-06T08:54:43.499Z,25.20
2023-02-06T08:57:15.061Z,25.00
2023-02-06T08:59:45.988Z,24.90
2023-02-06T09:02:18.407Z,19.20
2023-02-06T09:04:49.312Z,23.40
2023-02-06T09:07:20.639Z,20.20
2023-02-06T09:09:51.368Z,22.80
2023-02-06T09:12:22.541Z,21.50
2023-02-06T09:14:53.711Z,21.10
2023-02-06T09:17:25.223Z,22.10
2023-02-06T09:19:56.318Z,21.50
2023-02-06T09:22:27.652Z,23.80
2023-02-06T09:24:58.728Z,21.20
2023-02-06T09:27:29.985Z,21.60
2023-02-06T09:30:00.913Z,21.40
2023-02-06T09:32:31.853Z,23.60
2023-02-06T09:35:04.665Z,18.80
2023-02-06T09:37:36.078Z,17.40
2023-02-06T09:40:07.611Z,22.50
2023-02-06T09:42:39.611Z,24.70
2023-02-06T09:45:15.058Z,19.40
2023-02-06T09:47:47.662Z,18.70
2023-02-06T09:50:24.317Z,23.10
2023-02-06T09:53:03.641Z,20.90
2023-02-06T09:55:38.628Z,19.90
2023-02-06T09:58:16.504Z,26.90
2023-02-06T10:00:49.665Z,22.60
2023-02-06T10:03:43.471Z,19.70
2023-02-06T10:06:19.192Z,23.00
2023-02-06T10:08:52.927Z,20.90
2023-02-06T10:11:26.993Z,20.70
2023-02-06T10:13:59.872Z,24.20
2023-02-06T10:16:35.738Z,23.10
2023-02-06T10:19:13.214Z,20.40
2023-02-06T10:21:47.538Z,15.90
2023-02-06T10:24:23.740Z,15.80
2023-02-06T10:26:54.873Z,13.20
2023-02-06T10:29:27.032Z,15.10
2023-02-06T10:32:00.668Z,18.40
2023-02-06T10:37:09.858Z,15.30
2023-02-06T10:39:47.335Z,12.10
2023-02-06T10:42:22.810Z,14.00
2023-02-06T10:45:17.204Z,15.70
2023-02-06T10:47:51.110Z,16.60
2023-02-06T10:50:25.368Z,12.70
2023-02-06T10:52:57.751Z,14.70
2023-02-06T10:55:29.943Z,12.10
2023-02-06T10:58:05.662Z,14.10
2023-02-06T11:00:37.511Z,13.70
2023-02-06T11:03:12.946Z,13.10
2023-02-06T11:05:43.936Z,15.00
2023-02-06T11:08:20.020Z,16.20
2023-02-06T11:10:50.884Z,12.70
2023-02-06T11:13:25.348Z,12.80
2023-02-06T11:15:59.153Z,13.60
2023-02-06T11:18:31.896Z,13.00
2023-02-06T11:21:03.602Z,13.50
2023-02-06T11:23:35.220Z,10.20
2023-02-06T11:26:14.426Z,12.80
2023-02-06T11:28:52.581Z,13.20
2023-02-06T11:31:39.656Z,14.20
2023-02-06T11:34:20.309Z,13.60
2023-02-06T11:36:58.592Z,13.50
2023-02-06T11:39:36.031Z,16.70
2023-02-06T11:42:07.926Z,13.20
2023-02-06T11:44:40.053Z,15.10
2023-02-06T11:47:32.731Z,17.80
2023-02-06T11:50:23.611Z,17.70
2023-02-06T11:52:59.848Z,14.30
2023-02-06T11:55:34.446Z,16.50
2023-02-06T11:58:07.667Z,16.10
2023-02-06T12:00:40.621Z,13.70
2023-02-06T12:03:27.972Z,14.60
2023-02-06T12:06:01.458Z,12.40
2023-02-06T12:08:40.373Z,12.80
2023-02-06T12:11:15.228Z,13.10
2023-02-06T12:13:48.975Z,17.20
2023-02-06T12:16:20.195Z,14.50
2023-02-06T12:18:53.928Z,15.60
2023-02-06T12:21:27.678Z,15.00
2023-02-06T12:24:00.669Z,14.10
2023-02-06T12:26:33.427Z,14.20
2023-02-06T12:29:10.022Z,14.00
2023-02-06T12:31:43.390Z,16.60
2023-02-06T12:34:16.063Z,16.70
2023-02-06T12:36:55.480Z,13.10
2023-02-06T12:39:30.784Z,13.30
2023-02-06T12:42:17.741Z,14.10
2023-02-06T12:44:56.550Z,16.70
2023-02-06T12:47:34.378Z,13.70
2023-02-06T12:50:10.725Z,20.10
2023-02-06T13:07:49.742Z,16.00
2023-02-06T13:10:26.744Z,13.50
2023-02-06T13:12:59.416Z,17.30
2023-02-06T13:15:36.616Z,12.80
2023-02-06T13:18:29.847Z,13.40
2023-02-06T13:21:17.076Z,18.00
2023-02-06T13:24:08.279Z,16.50
2023-02-06T13:27:05.591Z,13.80
2023-02-06T13:29:42.615Z,15.90
2023-02-06T13:32:36.411Z,18.60
2023-02-06T13:35:23.364Z,16.80
2023-02-06T13:38:16.458Z,15.10
2023-02-06T13:40:47.194Z,16.60
2023-02-06T13:43:20.425Z,15.70
2023-02-06T13:45:55.173Z,17.80
2023-02-06T13:48:46.883Z,17.50
2023-02-06T13:51:31.293Z,15.10
2023-02-06T13:54:21.992Z,17.00
2023-02-06T13:57:02.155Z,17.20
2023-02-06T13:59:35.236Z,17.70
2023-02-06T14:02:13.583Z,16.80
2023-02-06T14:04:49.873Z,23.80
2023-02-06T14:07:41.019Z,14.70
2023-02-06T14:10:26.467Z,19.20
2023-02-06T14:13:02.148Z,19.10
2023-02-06T14:15:35.485Z,18.00
2023-02-06T14:18:17.023Z,15.10
2023-02-06T14:20:54.000Z,16.40
2023-02-06T14:23:31.655Z,28.60
2023-02-06T14:26:13.187Z,19.90
2023-02-06T14:28:53.950Z,15.10
2023-02-06T14:31:37.995Z,18.80
2023-02-06T14:34:24.920Z,15.10
2023-02-06T14:37:16.435Z,18.60
2023-02-06T14:39:48.403Z,19.70
2023-02-06T14:42:21.295Z,18.20
2023-02-06T14:44:54.330Z,15.90
2023-02-06T14:47:27.756Z,17.40
2023-02-06T14:49:59.935Z,14.60
2023-02-06T14:52:35.718Z,18.80
2023-02-06T14:55:32.864Z,20.20
2023-02-06T14:58:05.252Z,19.00
2023-02-06T15:00:35.757Z,16.80
2023-02-06T15:03:13.490Z,16.80
2023-02-06T15:05:44.984Z,19.20
2023-02-06T15:08:24.314Z,18.30
2023-02-06T15:11:05.383Z,16.10
2023-02-06T15:13:41.356Z,16.20
2023-02-06T15:16:12.844Z,16.50
2023-02-06T15:18:44.123Z,18.20
2023-02-06T15:21:16.114Z,17.80
2023-02-06T15:23:55.139Z,18.80
2023-02-06T15:26:30.198Z,17.90
2023-02-06T15:29:02.008Z,20.00
2023-02-06T15:31:33.849Z,18.50
2023-02-06T15:34:05.855Z,17.30
2023-02-06T15:36:39.439Z,19.10
2023-02-06T15:41:42.613Z,15.80
2023-02-06T15:44:17.120Z,14.00
2023-02-06T15:46:49.402Z,18.80
2023-02-06T15:49:21.059Z,19.00
2023-02-06T15:51:54.256Z,19.90
2023-02-06T15:54:27.156Z,19.20
2023-02-06T15:57:01.750Z,19.30
2023-02-06T15:59:34.270Z,17.10
2023-02-06T16:02:05.811Z,16.50
2023-02-06T16:04:38.099Z,19.70
2023-02-06T16:07:21.363Z,16.70
2023-02-06T16:09:55.715Z,20.60
2023-02-06T16:12:27.192Z,17.60
2023-02-06T16:14:59.889Z,16.00
2023-02-06T16:17:34.099Z,17.80
2023-02-06T16:20:06.661Z,17.40
2023-02-06T16:22:38.673Z,16.70
2023-02-06T16:25:22.341Z,17.80
2023-02-06T16:27:59.267Z,22.20
2023-02-06T16:30:31.463Z,16.90
2023-02-06T16:33:18.467Z,21.00
2023-02-06T16:35:49.716Z,22.00
2023-02-06T16:38:21.221Z,19.60
2023-02-06T16:40:52.657Z,19.40
2023-02-06T16:43:24.036Z,19.50
2023-02-06T16:45:54.871Z,21.30
2023-02-06T16:48:26.230Z,20.50
2023-02-06T16:50:57.028Z,19.80
2023-02-06T16:53:28.620Z,21.10
2023-02-06T16:55:59.578Z,20.00
2023-02-06T16:58:32.399Z,25.70
2023-02-06T17:01:03.498Z,19.10
2023-02-06T17:03:34.794Z,19.80
2023-02-06T17:06:06.131Z,24.80
2023-02-06T17:08:39.835Z,22.80
2023-02-06T17:11:11.593Z,27.60
2023-02-06T17:13:42.943Z,22.00
2023-02-06T17:16:17.321Z,21.90
2023-02-06T17:18:48.925Z,18.40
2023-02-06T17:21:20.978Z,22.30
2023-02-06T17:23:53.560Z,21.50
2023-02-06T17:26:24.844Z,23.00
2023-02-06T17:28:56.354Z,26.30
2023-02-06T17:31:27.259Z,19.70
2023-02-06T17:33:59.535Z,20.70
2023-02-06T17:36:32.720Z,23.90
2023-02-06T17:39:04.104Z,25.00
2023-02-06T17:41:36.273Z,23.40
2023-02-06T17:44:07.903Z,24.80
2023-02-06T17:46:39.211Z,22.60
2023-02-06T17:49:19.472Z,21.00
2023-02-06T17:51:52.538Z,24.10
2023-02-06T17:54:23.619Z,23.70
2023-02-06T17:56:54.489Z,26.20
2023-02-06T17:59:25.946Z,25.60
2023-02-06T18:01:57.068Z,27.20
2023-02-06T18:04:33.553Z,19.70
2023-02-06T18:07:08.907Z,28.50
2023-02-06T18:09:42.156Z,26.10
2023-02-06T18:12:13.226Z,25.00
2023-02-06T18:14:44.571Z,25.60
2023-02-06T18:17:19.623Z,27.00
2023-02-06T18:19:52.617Z,30.50
2023-02-06T18:22:24.187Z,35.90
2023-02-06T18:25:05.773Z,37.30
2023-02-06T18:27:47.245Z,34.80
2023-02-06T18:30:18.561Z,35.20
2023-02-06T18:32:54.387Z,45.40
2023-02-06T18:35:26.237Z,47.30
2023-02-06T18:37:57.206Z,54.70
2023-02-06T18:40:29.271Z,60.20
2023-02-06T18:43:00.663Z,50.10
2023-02-06T18:45:42.867Z,55.90
2023-02-06T18:48:14.847Z,72.00
2023-02-06T18:50:45.626Z,71.60
2023-02-06T18:53:21.883Z,57.50
2023-02-06T18:56:04.072Z,64.50
2023-02-06T18:58:35.944Z,68.40
2023-02-06T19:01:13.429Z,73.10
2023-02-06T19:03:49.834Z,73.90
2023-02-06T19:06:21.968Z,72.00
2023-02-06T19:09:20.843Z,65.50
2023-02-06T19:12:02.361Z,65.30
2023-02-06T19:14:33.093Z,55.80
2023-02-06T19:17:08.422Z,64.30
2023-02-06T19:19:39.724Z,62.60
2023-02-06T19:22:10.725Z,69.30
2023-02-06T19:24:43.445Z,68.30
2023-02-06T19:27:14.388Z,73.90
2023-02-06T19:29:45.786Z,69.10
2023-02-06T19:32:16.577Z,63.90
2023-02-06T19:34:48.164Z,69.60
2023-02-06T19:37:19.178Z,62.70
2023-02-06T19:39:50.761Z,76.80
2023-02-06T19:42:21.713Z,76.40
2023-02-06T19:44:55.445Z,67.40
2023-02-06T19:47:26.381Z,74.30
2023-02-06T19:49:57.793Z,72.00
2023-02-06T19:52:28.790Z,75.90
2023-02-06T19:55:04.556Z,67.20
2023-02-06T19:57:35.971Z,69.00
2023-02-06T20:00:12.501Z,52.60
2023-02-06T20:02:43.833Z,37.00
2023-02-06T20:05:14.466Z,36.50
2023-02-06T20:07:46.286Z,38.60
2023-02-06T20:10:16.989Z,63.20
2023-02-06T20:12:48.713Z,71.60
2023-02-06T20:15:19.630Z,64.10
2023-02-06T20:17:51.973Z,84.30
2023-02-06T20:20:22.622Z,73.60
2023-02-06T20:22:54.133Z,88.80
2023-02-06T20:25:25.156Z,85.90
2023-02-06T20:27:56.549Z,83.20
2023-02-06T20:30:27.570Z,80.30
2023-02-06T20:32:58.838Z,79.80
2023-02-06T20:35:29.880Z,80.60
2023-02-06T20:38:01.420Z,90.30
2023-02-06T20:40:32.196Z,96.90
2023-02-06T20:43:03.999Z,87.60
2023-02-06T20:45:35.115Z,91.00
2023-02-06T21:03:11.603Z,96.70
2023-02-06T21:05:55.585Z,89.40
2023-02-06T21:08:27.100Z,92.70
2023-02-06T21:10:58.105Z,86.00
2023-02-06T21:13:29.097Z,89.40
2023-02-06T21:16:00.428Z,72.90
2023-02-06T21:18:32.435Z,98.20
2023-02-06T21:21:09.695Z,97.90
2023-02-06T21:23:42.392Z,114.00
2023-02-06T21:26:13.880Z,112.20
2023-02-06T21:28:45.301Z,119.10
2023-02-06T21:31:18.464Z,123.70
2023-02-06T21:36:21.248Z,114.30
2023-02-06T21:38:52.755Z,105.10
2023-02-06T21:41:23.583Z,109.10
2023-02-06T21:43:55.364Z,120.00
2023-02-06T21:46:26.265Z,122.00
2023-02-06T21:48:58.358Z,128.50
2023-02-06T21:51:29.497Z,128.50
2023-02-06T21:54:00.568Z,122.50
2023-02-06T21:56:31.583Z,122.80
2023-02-06T21:59:03.018Z,132.10
2023-02-06T22:01:34.400Z,116.60
2023-02-06T22:04:05.869Z,131.60
2023-02-06T22:06:37.789Z,127.20
2023-02-06T22:09:10.161Z,134.20
2023-02-06T22:11:41.918Z,120.40
2023-02-06T22:14:15.087Z,118.20
2023-02-06T22:16:47.106Z,132.40
2023-02-06T22:19:18.316Z,142.60
2023-02-06T22:21:49.261Z,136.60
2023-02-06T22:24:21.066Z,125.30
2023-02-06T22:26:51.736Z,136.00
2023-02-06T22:29:22.758Z,156.50
2023-02-06T22:31:53.925Z,154.30
2023-02-06T22:34:25.014Z,136.00
2023-02-06T22:36:55.905Z,149.10
2023-02-06T22:39:27.326Z,142.20
2023-02-06T22:41:57.899Z,134.70
2023-02-06T22:44:29.898Z,156.40
2023-02-06T22:47:01.404Z,147.80
2023-02-06T22:49:32.433Z,150.20
2023-02-06T22:52:03.295Z,152.50
2023-02-06T22:54:34.610Z,149.20
2023-02-06T22:57:05.762Z,158.80
2023-02-06T22:59:36.764Z,155.70
2023-02-06T23:02:07.642Z,154.30
2023-02-06T23:04:39.250Z,159.10
2023-02-06T23:07:09.923Z,167.00
2023-02-06T23:09:41.448Z,157.50
2023-02-06T23:12:13.822Z,158.60
2023-02-06T23:14:45.224Z,160.00
2023-02-06T23:17:16.033Z,177.70
2023-02-06T23:19:47.245Z,166.00
2023-02-06T23:22:17.808Z,164.00
2023-02-06T23:24:50.891Z,187.10
2023-02-06T23:27:21.421Z,194.30
2023-02-06T23:29:52.565Z,170.10
2023-02-06T23:32:23.195Z,175.90
2023-02-06T23:34:54.068Z,168.80
2023-02-06T23:37:24.862Z,177.20
2023-02-06T23:39:56.178Z,170.60
2023-02-06T23:42:26.983Z,171.00
2023-02-06T23:44:59.004Z,182.70
2023-02-06T23:47:29.530Z,174.60
2023-02-06T23:50:01.290Z,193.90
2023-02-06T23:52:32.531Z,191.40
2023-02-06T23:55:03.830Z,180.10
2023-02-06T23:57:35.945Z,176.00
